createdAt,value
2017-09-19T00:00:11.409Z,17.32
2017-09-19T00:02:37.604Z,17.22
2017-09-19T00:05:03.869Z,17.23
2017-09-19T00:07:30.097Z,17.22
2017-09-19T00:09:56.724Z,17.46
2017-09-19T00:12:23.148Z,17.40
2017-09-19T00:14:49.397Z,17.28
2017-09-19T00:17:15.865Z,17.16
2017-09-19T00:19:43.446Z,17.06
2017-09-19T00:22:09.639Z,17.18
2017-09-19T00:24:35.951Z,17.06
2017-09-19T00:27:02.374Z,16.96
2017-09-19T00:29:28.556Z,17.08
2017-09-19T00:31:54.749Z,16.98
2017-09-19T00:34:21.033Z,16.91
2017-09-19T00:36:47.281Z,16.96
2017-09-19T00:39:13.509Z,16.88
2017-09-19T00:41:39.757Z,16.83
2017-09-19T00:44:05.973Z,16.82
2017-09-19T00:46:32.282Z,16.71
2017-09-19T00:48:58.801Z,16.87
2017-09-19T00:51:25.070Z,17.07
2017-09-19T00:53:51.307Z,17.15
2017-09-19T00:56:17.560Z,17.10
2017-09-19T00:58:43.776Z,16.95
2017-09-19T01:01:10.031Z,16.79
2017-09-19T01:03:36.288Z,16.69
2017-09-19T01:06:02.515Z,16.64
2017-09-19T01:08:28.709Z,16.69
2017-09-19T01:10:54.982Z,16.62
2017-09-19T01:13:21.545Z,16.67
2017-09-19T01:15:48.164Z,16.94
2017-09-19T01:18:14.825Z,17.05
2017-09-19T01:20:41.255Z,16.94
2017-09-19T01:23:07.862Z,16.78
2017-09-19T01:25:34.531Z,16.66
2017-09-19T01:28:00.743Z,16.62
2017-09-19T01:30:26.960Z,16.51
2017-09-19T01:32:53.229Z,16.46
2017-09-19T01:35:19.634Z,16.36
2017-09-19T01:37:45.874Z,16.47
2017-09-19T01:40:12.310Z,16.29
2017-09-19T01:42:38.694Z,16.31
2017-09-19T01:45:05.140Z,16.28
2017-09-19T01:47:31.817Z,16.32
2017-09-19T01:49:58.250Z,16.33
2017-09-19T01:52:24.476Z,16.21
2017-09-19T01:54:50.959Z,16.13
2017-09-19T01:57:17.395Z,16.08
2017-09-19T01:59:43.777Z,16.24
2017-09-19T02:02:10.384Z,16.22
2017-09-19T02:04:36.803Z,16.36
2017-09-19T02:07:03.279Z,16.36
2017-09-19T02:09:29.916Z,16.22
2017-09-19T02:11:56.144Z,16.15
2017-09-19T02:14:22.376Z,16.15
2017-09-19T02:16:48.805Z,16.18
2017-09-19T02:19:15.060Z,16.08
2017-09-19T02:21:41.269Z,16.15
2017-09-19T02:24:07.533Z,16.08
2017-09-19T02:26:33.729Z,15.99
2017-09-19T02:28:59.944Z,15.97
2017-09-19T02:31:26.209Z,15.88
2017-09-19T02:33:52.423Z,15.77
2017-09-19T02:36:18.650Z,15.73
2017-09-19T02:38:44.928Z,15.77
2017-09-19T02:41:11.141Z,15.66
2017-09-19T02:43:37.324Z,15.65
2017-09-19T02:46:03.581Z,15.61
2017-09-19T02:48:29.783Z,15.63
2017-09-19T02:50:56.010Z,15.57
2017-09-19T02:53:22.282Z,15.52
2017-09-19T02:55:48.487Z,15.54
2017-09-19T02:58:14.708Z,15.56
2017-09-19T03:00:40.973Z,15.57
2017-09-19T03:03:07.204Z,15.64
2017-09-19T03:05:33.414Z,15.63
2017-09-19T03:07:59.674Z,15.60
2017-09-19T03:10:26.043Z,15.68
2017-09-19T03:12:52.271Z,15.76
2017-09-19T03:15:18.734Z,15.72
2017-09-19T03:17:44.945Z,15.79
2017-09-19T03:20:11.170Z,15.82
2017-09-19T03:22:37.448Z,15.88
2017-09-19T03:25:03.668Z,15.85
2017-09-19T03:27:29.899Z,16.15
2017-09-19T03:29:56.184Z,16.18
2017-09-19T03:32:22.492Z,15.98
2017-09-19T03:34:48.696Z,15.82
2017-09-19T03:37:14.973Z,15.68
2017-09-19T03:39:41.176Z,15.58
2017-09-19T03:42:07.392Z,15.51
2017-09-19T03:44:33.671Z,15.40
2017-09-19T03:46:59.884Z,15.40
2017-09-19T03:49:26.110Z,15.28
2017-09-19T03:51:52.388Z,15.33
2017-09-19T03:54:18.620Z,15.50
2017-09-19T03:56:44.833Z,15.38
2017-09-19T03:59:11.106Z,15.54
2017-09-19T04:01:37.336Z,15.63
2017-09-19T04:04:03.555Z,15.64
2017-09-19T04:06:29.834Z,15.63
2017-09-19T04:08:56.067Z,15.54
2017-09-19T04:11:22.283Z,15.49
2017-09-19T04:13:48.540Z,15.54
2017-09-19T04:16:14.749Z,15.56
2017-09-19T04:18:40.953Z,15.72
2017-09-19T04:21:07.233Z,15.91
2017-09-19T04:23:33.425Z,16.18
2017-09-19T04:25:59.627Z,16.57
2017-09-19T04:28:25.907Z,16.97
2017-09-19T04:30:52.124Z,17.49
2017-09-19T04:33:18.335Z,18.10
2017-09-19T04:35:44.593Z,18.62
2017-09-19T04:38:10.786Z,19.14
2017-09-19T04:40:37.007Z,19.63
2017-09-19T04:43:03.244Z,20.04
2017-09-19T04:45:29.482Z,20.46
2017-09-19T04:47:55.702Z,20.83
2017-09-19T04:50:21.956Z,21.06
2017-09-19T04:52:48.166Z,21.26
2017-09-19T04:55:14.398Z,21.61
2017-09-19T04:57:40.681Z,22.01
2017-09-19T05:00:06.908Z,22.56
2017-09-19T05:02:33.134Z,22.75
2017-09-19T05:04:59.404Z,22.99
2017-09-19T05:07:25.617Z,23.41
2017-09-19T05:09:51.847Z,23.53
2017-09-19T05:12:18.171Z,23.68
2017-09-19T05:14:44.389Z,24.09
2017-09-19T05:17:10.627Z,24.95
2017-09-19T05:19:36.900Z,25.24
2017-09-19T05:22:03.113Z,26.10
2017-09-19T05:24:29.331Z,26.61
2017-09-19T05:26:55.631Z,26.26
2017-09-19T05:29:21.864Z,27.32
2017-09-19T05:31:48.091Z,27.41
2017-09-19T05:34:14.450Z,28.17
2017-09-19T05:36:40.671Z,28.57
2017-09-19T05:39:06.894Z,29.14
2017-09-19T05:41:33.184Z,29.22
2017-09-19T05:43:59.391Z,29.58
2017-09-19T05:46:25.610Z,29.47
2017-09-19T05:48:51.899Z,29.88
2017-09-19T05:51:18.128Z,30.45
2017-09-19T05:53:44.360Z,31.04
2017-09-19T05:56:10.640Z,31.16
2017-09-19T05:58:36.853Z,31.54
2017-09-19T06:01:03.086Z,32.05
2017-09-19T06:03:29.371Z,31.87
2017-09-19T06:05:55.596Z,31.73
2017-09-19T06:08:21.804Z,31.69
2017-09-19T06:10:48.096Z,32.20
2017-09-19T06:13:14.309Z,32.58
2017-09-19T06:15:40.517Z,32.79
2017-09-19T06:18:06.800Z,33.01
2017-09-19T06:20:33.027Z,33.31
2017-09-19T06:22:59.245Z,33.94
2017-09-19T06:25:25.531Z,33.25
2017-09-19T06:27:51.864Z,33.72
2017-09-19T06:30:18.080Z,33.05
2017-09-19T06:32:44.303Z,33.51
2017-09-19T06:35:10.533Z,32.87
2017-09-19T06:37:36.736Z,33.99
2017-09-19T06:40:02.972Z,34.50
2017-09-19T06:42:29.190Z,34.39
2017-09-19T06:44:55.398Z,34.61
2017-09-19T06:47:21.628Z,34.32
2017-09-19T06:49:47.843Z,34.30
2017-09-19T06:52:14.071Z,35.29
2017-09-19T06:54:40.351Z,35.43
2017-09-19T06:57:06.564Z,34.68
2017-09-19T06:59:32.787Z,34.59
2017-09-19T07:01:59.062Z,34.68
2017-09-19T07:04:25.290Z,34.23
2017-09-19T07:06:51.510Z,34.90
2017-09-19T07:09:17.778Z,35.35
2017-09-19T07:11:44.001Z,35.14
2017-09-19T07:14:10.228Z,35.64
2017-09-19T07:16:36.494Z,35.90
2017-09-19T07:19:02.732Z,35.89
2017-09-19T07:21:28.949Z,36.07
2017-09-19T07:23:55.209Z,35.82
2017-09-19T07:26:21.434Z,36.63
2017-09-19T07:28:47.662Z,36.65
2017-09-19T07:31:13.945Z,37.03
2017-09-19T07:33:40.242Z,36.65
2017-09-19T07:36:06.447Z,37.74
2017-09-19T07:38:32.720Z,38.31
2017-09-19T07:40:58.948Z,38.10
2017-09-19T07:43:25.162Z,37.82
2017-09-19T07:45:51.431Z,38.29
2017-09-19T07:48:17.666Z,38.21
2017-09-19T07:50:44.062Z,38.26
2017-09-19T07:53:10.327Z,38.11
2017-09-19T07:55:36.558Z,37.34
2017-09-19T07:58:02.774Z,38.27
2017-09-19T08:00:29.070Z,38.26
2017-09-19T08:02:55.296Z,37.20
2017-09-19T08:05:21.522Z,36.53
2017-09-19T08:07:47.804Z,36.14
2017-09-19T08:10:14.017Z,35.89
2017-09-19T08:12:40.240Z,36.05
2017-09-19T08:15:06.532Z,36.40
2017-09-19T08:17:32.737Z,36.90
2017-09-19T08:19:58.960Z,37.47
2017-09-19T08:22:25.247Z,37.04
2017-09-19T08:24:51.476Z,37.54
2017-09-19T08:27:17.693Z,37.53
2017-09-19T08:29:43.976Z,36.67
2017-09-19T08:32:10.188Z,36.52
2017-09-19T08:34:36.402Z,35.87
2017-09-19T08:37:02.680Z,36.25
2017-09-19T08:39:28.892Z,36.14
2017-09-19T08:41:55.107Z,35.77
2017-09-19T08:44:21.388Z,35.56
2017-09-19T08:46:47.628Z,36.58
2017-09-19T08:49:13.938Z,35.98
2017-09-19T08:51:40.222Z,36.60
2017-09-19T08:54:06.450Z,36.89
2017-09-19T08:56:32.665Z,36.58
2017-09-19T08:58:58.955Z,35.98
2017-09-19T09:01:25.302Z,37.23
2017-09-19T09:03:51.531Z,36.25
2017-09-19T09:06:17.798Z,36.08
2017-09-19T09:08:44.020Z,36.69
2017-09-19T09:11:10.420Z,36.83
2017-09-19T09:13:36.685Z,37.39
2017-09-19T09:16:02.890Z,36.74
2017-09-19T09:18:29.115Z,37.11
2017-09-19T09:20:55.380Z,37.48
2017-09-19T09:23:21.595Z,36.87
2017-09-19T09:25:47.822Z,37.65
2017-09-19T09:28:14.104Z,38.75
2017-09-19T09:30:40.336Z,38.01
2017-09-19T09:33:06.564Z,37.46
2017-09-19T09:35:32.829Z,37.20
2017-09-19T09:37:59.020Z,37.16
2017-09-19T09:40:25.235Z,36.52
2017-09-19T09:42:51.523Z,36.73
2017-09-19T09:45:17.733Z,37.28
2017-09-19T09:47:43.954Z,36.99
2017-09-19T09:50:10.222Z,37.53
2017-09-19T09:52:36.452Z,38.15
2017-09-19T09:55:02.669Z,39.02
2017-09-19T09:57:28.944Z,38.28
2017-09-19T09:59:55.157Z,39.13
2017-09-19T10:02:21.383Z,38.78
2017-09-19T10:04:47.653Z,38.23
2017-09-19T10:07:13.869Z,38.23
2017-09-19T10:09:40.081Z,39.61
2017-09-19T10:12:06.356Z,39.34
2017-09-19T10:14:32.562Z,38.61
2017-09-19T10:16:58.770Z,39.42
2017-09-19T10:19:25.048Z,38.28
2017-09-19T10:21:51.258Z,38.67
2017-09-19T10:24:17.480Z,38.97
2017-09-19T10:26:43.757Z,38.30
2017-09-19T10:29:09.983Z,38.36
2017-09-19T10:31:36.212Z,38.78
2017-09-19T10:34:02.481Z,38.41
2017-09-19T10:36:28.681Z,38.54
2017-09-19T10:38:54.892Z,38.95
2017-09-19T10:41:21.169Z,39.60
2017-09-19T10:43:47.482Z,40.36
2017-09-19T10:46:13.705Z,40.95
2017-09-19T10:48:39.969Z,40.63
2017-09-19T10:51:06.212Z,40.54
2017-09-19T10:53:32.447Z,40.84
2017-09-19T10:55:58.715Z,40.87
2017-09-19T10:58:24.923Z,39.95
2017-09-19T11:00:51.129Z,39.53
2017-09-19T11:03:17.393Z,40.04
2017-09-19T11:05:43.624Z,40.70
2017-09-19T11:08:09.842Z,40.51
2017-09-19T11:10:36.109Z,38.77
2017-09-19T11:13:02.459Z,39.31
2017-09-19T11:15:28.669Z,40.14
2017-09-19T11:17:54.924Z,39.92
2017-09-19T11:20:21.132Z,39.48
2017-09-19T11:22:47.355Z,40.11
2017-09-19T11:25:13.642Z,40.30
2017-09-19T11:27:39.853Z,40.16
2017-09-19T11:30:06.076Z,40.49
2017-09-19T11:32:32.341Z,39.59
2017-09-19T11:34:58.549Z,39.40
2017-09-19T11:37:24.769Z,38.90
2017-09-19T11:39:51.052Z,38.61
2017-09-19T11:42:17.270Z,37.70
2017-09-19T11:44:43.488Z,36.78
2017-09-19T11:47:09.780Z,37.20
2017-09-19T11:49:36.003Z,37.23
2017-09-19T11:52:02.306Z,37.69
2017-09-19T11:54:28.568Z,37.63
2017-09-19T11:56:54.784Z,37.80
2017-09-19T11:59:20.997Z,37.49
2017-09-19T12:01:47.266Z,38.39
2017-09-19T12:04:14.382Z,38.48
2017-09-19T12:06:40.597Z,39.82
2017-09-19T12:09:06.898Z,40.33
2017-09-19T12:11:33.114Z,40.38
2017-09-19T12:13:59.320Z,39.39
2017-09-19T12:16:25.824Z,39.92
2017-09-19T12:18:52.037Z,39.83
2017-09-19T12:21:18.250Z,40.08
2017-09-19T12:23:44.540Z,39.70
2017-09-19T12:26:10.758Z,39.59
2017-09-19T12:28:36.973Z,39.16
2017-09-19T12:31:03.265Z,37.94
2017-09-19T12:33:29.486Z,37.62
2017-09-19T12:35:55.708Z,37.27
2017-09-19T12:38:22.015Z,37.21
2017-09-19T12:40:48.229Z,37.47
2017-09-19T12:43:14.528Z,37.75
2017-09-19T12:45:40.796Z,38.23
2017-09-19T12:48:07.002Z,38.27
2017-09-19T12:50:33.225Z,38.47
2017-09-19T12:52:59.502Z,38.96
2017-09-19T12:55:25.729Z,39.20
2017-09-19T12:57:51.945Z,38.89
2017-09-19T13:00:18.220Z,37.93
2017-09-19T13:02:44.428Z,36.31
2017-09-19T13:05:10.664Z,36.40
2017-09-19T13:07:36.955Z,36.70
2017-09-19T13:10:03.186Z,37.05
2017-09-19T13:12:29.419Z,36.65
2017-09-19T13:14:55.724Z,36.86
2017-09-19T13:17:21.963Z,37.15
2017-09-19T13:19:48.198Z,37.38
2017-09-19T13:22:16.321Z,37.59
2017-09-19T13:24:43.712Z,37.69
2017-09-19T13:27:10.456Z,37.02
2017-09-19T13:29:37.346Z,36.16
2017-09-19T13:32:05.608Z,35.28
2017-09-19T13:34:32.311Z,34.71
2017-09-19T13:36:58.696Z,34.73
2017-09-19T13:39:24.958Z,34.09
2017-09-19T13:41:51.169Z,34.02
2017-09-19T13:44:17.452Z,33.96
2017-09-19T13:46:43.677Z,33.88
2017-09-19T13:49:09.907Z,33.60
2017-09-19T13:51:36.187Z,33.38
2017-09-19T13:54:02.469Z,33.10
2017-09-19T13:56:28.685Z,32.92
2017-09-19T13:58:54.967Z,32.84
2017-09-19T14:01:21.190Z,32.74
2017-09-19T14:03:47.415Z,32.65
2017-09-19T14:06:13.741Z,32.52
2017-09-19T14:08:39.957Z,32.61
2017-09-19T14:11:06.176Z,32.58
2017-09-19T14:13:32.451Z,32.57
2017-09-19T14:15:58.684Z,32.63
2017-09-19T14:18:25.040Z,32.70
2017-09-19T14:20:51.325Z,32.87
2017-09-19T14:23:17.558Z,32.76
2017-09-19T14:25:43.764Z,32.69
2017-09-19T14:28:10.055Z,32.75
2017-09-19T14:30:36.288Z,32.85
2017-09-19T14:33:02.512Z,32.78
2017-09-19T14:35:28.781Z,32.65
2017-09-19T14:37:54.979Z,32.65
2017-09-19T14:40:21.192Z,32.73
2017-09-19T14:42:47.509Z,32.69
2017-09-19T14:45:13.725Z,32.78
2017-09-19T14:47:39.945Z,32.83
2017-09-19T14:50:06.220Z,32.90
2017-09-19T14:52:32.441Z,32.94
2017-09-19T14:54:58.649Z,32.93
2017-09-19T14:57:24.921Z,32.86
2017-09-19T14:59:51.128Z,32.89
2017-09-19T15:02:17.345Z,32.95
2017-09-19T15:04:43.619Z,33.02
2017-09-19T15:07:09.814Z,32.99
2017-09-19T15:09:36.035Z,32.95
2017-09-19T15:12:02.310Z,32.73
2017-09-19T15:14:28.504Z,32.69
2017-09-19T15:16:54.731Z,32.62
2017-09-19T15:19:21.006Z,32.56
2017-09-19T15:21:47.385Z,32.44
2017-09-19T15:24:13.623Z,32.41
2017-09-19T15:26:39.901Z,32.36
2017-09-19T15:29:06.217Z,32.27
2017-09-19T15:31:32.436Z,32.30
2017-09-19T15:33:58.735Z,32.11
2017-09-19T15:36:24.950Z,31.98
2017-09-19T15:38:51.179Z,31.98
2017-09-19T15:41:17.446Z,31.96
2017-09-19T15:43:43.661Z,31.91
2017-09-19T15:46:09.877Z,31.80
2017-09-19T15:48:36.197Z,31.65
2017-09-19T15:51:02.415Z,31.58
2017-09-19T15:53:28.640Z,31.43
2017-09-19T15:55:54.995Z,31.50
2017-09-19T15:58:21.227Z,31.42
2017-09-19T16:00:47.460Z,31.31
2017-09-19T16:03:13.740Z,31.20
2017-09-19T16:05:40.111Z,31.14
2017-09-19T16:08:06.342Z,31.00
2017-09-19T16:10:32.632Z,30.97
2017-09-19T16:12:58.861Z,30.93
2017-09-19T16:15:25.088Z,30.90
2017-09-19T16:17:51.465Z,30.62
2017-09-19T16:20:17.695Z,30.49
2017-09-19T16:22:43.932Z,30.23
2017-09-19T16:25:10.212Z,30.04
2017-09-19T16:27:36.442Z,29.94
2017-09-19T16:30:02.653Z,29.80
2017-09-19T16:32:29.032Z,29.74
2017-09-19T16:34:55.245Z,29.72
2017-09-19T16:37:21.461Z,29.78
2017-09-19T16:39:47.726Z,29.43
2017-09-19T16:42:13.946Z,29.40
2017-09-19T16:44:40.179Z,29.20
2017-09-19T16:47:06.454Z,29.13
2017-09-19T16:49:32.679Z,28.92
2017-09-19T16:51:58.899Z,28.69
2017-09-19T16:54:25.162Z,28.56
2017-09-19T16:56:51.361Z,28.40
2017-09-19T16:59:17.578Z,28.30
2017-09-19T17:01:43.859Z,28.11
2017-09-19T17:04:10.061Z,27.99
2017-09-19T17:06:36.301Z,27.94
2017-09-19T17:09:02.577Z,27.83
2017-09-19T17:11:28.802Z,27.84
2017-09-19T17:13:55.037Z,27.68
2017-09-19T17:16:21.324Z,27.41
2017-09-19T17:18:47.537Z,27.05
2017-09-19T17:21:13.743Z,26.92
2017-09-19T17:23:40.021Z,27.00
2017-09-19T17:26:06.260Z,26.97
2017-09-19T17:28:32.478Z,26.89
2017-09-19T17:30:58.745Z,26.78
2017-09-19T17:33:24.976Z,26.63
2017-09-19T17:35:51.212Z,26.53
2017-09-19T17:38:17.486Z,26.61
2017-09-19T17:40:43.706Z,26.71
2017-09-19T17:43:09.920Z,26.74
2017-09-19T17:45:36.192Z,26.79
2017-09-19T17:48:02.423Z,27.13
2017-09-19T17:50:28.668Z,27.36
2017-09-19T17:52:54.965Z,27.60
2017-09-19T17:55:21.195Z,27.62
2017-09-19T17:57:47.421Z,27.60
2017-09-19T18:00:13.756Z,27.64
2017-09-19T18:02:40.050Z,27.68
2017-09-19T18:05:06.293Z,27.67
2017-09-19T18:07:32.565Z,27.54
2017-09-19T18:09:58.793Z,27.48
2017-09-19T18:12:25.022Z,27.51
2017-09-19T18:14:51.301Z,27.42
2017-09-19T18:17:17.497Z,27.24
2017-09-19T18:19:43.753Z,27.11
2017-09-19T18:22:10.064Z,26.95
2017-09-19T18:24:36.296Z,26.84
2017-09-19T18:27:02.514Z,26.68
2017-09-19T18:29:28.792Z,26.45
2017-09-19T18:31:55.007Z,26.34
2017-09-19T18:34:21.217Z,26.19
2017-09-19T18:36:47.507Z,26.06
2017-09-19T18:39:13.766Z,25.85
2017-09-19T18:41:40.014Z,25.76
2017-09-19T18:44:06.310Z,25.58
2017-09-19T18:46:32.540Z,25.51
2017-09-19T18:48:58.836Z,25.39
2017-09-19T18:51:25.120Z,25.36
2017-09-19T18:53:51.358Z,25.31
2017-09-19T18:56:17.606Z,25.21
2017-09-19T18:58:43.881Z,25.17
2017-09-19T19:01:10.104Z,25.03
2017-09-19T19:03:36.351Z,24.93
2017-09-19T19:06:02.649Z,24.86
2017-09-19T19:08:28.867Z,24.63
2017-09-19T19:10:55.092Z,24.52
2017-09-19T19:13:21.354Z,24.28
2017-09-19T19:15:47.572Z,24.24
2017-09-19T19:18:13.802Z,24.18
2017-09-19T19:20:40.088Z,24.01
2017-09-19T19:23:06.297Z,23.97
2017-09-19T19:25:32.513Z,23.99
2017-09-19T19:27:58.785Z,23.96
2017-09-19T19:30:24.994Z,23.85
2017-09-19T19:32:51.202Z,23.90
2017-09-19T19:35:17.583Z,23.88
2017-09-19T19:37:43.799Z,23.90
2017-09-19T19:40:10.047Z,23.92
2017-09-19T19:42:36.329Z,23.81
2017-09-19T19:45:02.554Z,23.63
2017-09-19T19:47:28.785Z,23.60
2017-09-19T19:49:55.068Z,23.59
2017-09-19T19:52:21.292Z,23.39
2017-09-19T19:54:47.510Z,23.32
2017-09-19T19:57:13.787Z,23.36
2017-09-19T19:59:40.016Z,23.37
2017-09-19T20:02:06.261Z,23.35
2017-09-19T20:04:32.563Z,23.29
2017-09-19T20:06:58.801Z,23.25
2017-09-19T20:09:25.031Z,23.19
2017-09-19T20:11:51.303Z,23.11
2017-09-19T20:14:17.499Z,23.13
2017-09-19T20:16:43.731Z,23.17
2017-09-19T20:19:10.032Z,23.01
2017-09-19T20:21:36.245Z,22.84
2017-09-19T20:24:02.450Z,22.89
2017-09-19T20:26:28.741Z,22.82
2017-09-19T20:28:54.973Z,22.71
2017-09-19T20:31:21.199Z,22.67
2017-09-19T20:33:47.467Z,22.63
2017-09-19T20:36:13.674Z,22.54
2017-09-19T20:38:39.956Z,22.41
2017-09-19T20:41:06.221Z,22.42
2017-09-19T20:43:32.439Z,22.26
2017-09-19T20:45:58.674Z,22.27
2017-09-19T20:48:24.956Z,22.13
2017-09-19T20:50:51.162Z,22.26
2017-09-19T20:53:17.504Z,22.14
2017-09-19T20:55:43.785Z,22.08
2017-09-19T20:58:10.005Z,22.04
2017-09-19T21:00:36.374Z,22.07
2017-09-19T21:03:02.671Z,22.11
2017-09-19T21:05:28.899Z,21.99
2017-09-19T21:07:55.115Z,21.92
2017-09-19T21:10:21.406Z,21.86
2017-09-19T21:12:47.627Z,21.81
2017-09-19T21:15:13.840Z,21.84
2017-09-19T21:17:40.129Z,21.94
2017-09-19T21:20:06.457Z,22.06
2017-09-19T21:22:32.670Z,22.04
2017-09-19T21:24:58.902Z,21.92
2017-09-19T21:27:25.108Z,21.88
2017-09-19T21:29:51.393Z,21.91
2017-09-19T21:32:17.678Z,21.84
2017-09-19T21:34:43.910Z,21.82
2017-09-19T21:37:10.274Z,21.61
2017-09-19T21:39:36.691Z,21.61
2017-09-19T21:42:02.931Z,21.56
2017-09-19T21:44:29.213Z,21.57
2017-09-19T21:46:55.451Z,21.47
2017-09-19T21:49:21.680Z,21.39
2017-09-19T21:51:47.932Z,21.25
2017-09-19T21:54:14.125Z,21.28
2017-09-19T21:56:40.353Z,21.21
2017-09-19T21:59:06.724Z,21.25
2017-09-19T22:01:32.948Z,21.24
2017-09-19T22:03:59.168Z,21.22
2017-09-19T22:06:25.453Z,21.20
2017-09-19T22:08:51.678Z,21.12
2017-09-19T22:11:17.898Z,21.15
2017-09-19T22:13:44.161Z,21.16
2017-09-19T22:16:10.509Z,21.20
2017-09-19T22:18:36.756Z,21.13
2017-09-19T22:21:03.020Z,21.20
2017-09-19T22:23:29.253Z,21.21
2017-09-19T22:25:55.493Z,21.19
2017-09-19T22:28:21.769Z,21.07
2017-09-19T22:30:48.005Z,20.93
2017-09-19T22:33:14.336Z,20.95
2017-09-19T22:35:40.646Z,20.90
2017-09-19T22:38:06.891Z,20.79
2017-09-19T22:40:33.114Z,20.77
2017-09-19T22:42:59.433Z,20.71
2017-09-19T22:45:25.656Z,20.93
2017-09-19T22:47:51.874Z,20.84
2017-09-19T22:50:18.136Z,20.70
2017-09-19T22:52:44.372Z,20.64
2017-09-19T22:55:10.607Z,20.49
2017-09-19T22:57:37.029Z,20.50
2017-09-19T23:00:03.253Z,20.43
2017-09-19T23:02:29.502Z,20.54
2017-09-19T23:04:55.787Z,20.45
2017-09-19T23:07:22.028Z,20.33
2017-09-19T23:09:48.264Z,20.30
2017-09-19T23:12:14.534Z,20.56
2017-09-19T23:14:40.767Z,20.72
2017-09-19T23:17:07.002Z,20.60
2017-09-19T23:19:33.277Z,20.60
2017-09-19T23:21:59.500Z,20.63
2017-09-19T23:24:25.731Z,20.57
2017-09-19T23:26:52.023Z,20.52
2017-09-19T23:29:18.246Z,20.39
2017-09-19T23:31:44.478Z,20.09
2017-09-19T23:34:10.764Z,20.05
2017-09-19T23:36:36.989Z,20.10
2017-09-19T23:39:03.227Z,19.92
2017-09-19T23:41:29.513Z,19.86
2017-09-19T23:43:55.745Z,19.74
2017-09-19T23:46:21.980Z,19.77
2017-09-19T23:48:48.259Z,19.75
2017-09-19T23:51:14.490Z,19.88
2017-09-19T23:53:40.708Z,19.91
2017-09-19T23:56:06.996Z,19.81
2017-09-19T23:58:33.219Z,19.72
